Hauptseite
METAR-TAF:

METAR-TAF

Flughäfen :

Kairo, Ägypten

Flughafen Kairo

Breite: 30-08N, Länge: 031-24E, Höhe: 64 m

Beobachtung

Neuester Wetterbericht von vor 36 Minuten, um 11:30 UTC
Wind 7 kt aus Nordwest
Temperatur 31°C
Luftfeuchtigkeit 36%
Luftdruck 1013 hPa
Sichtweite 10 km oder mehr
keine Wolken unter 1500 m und keine Kumulonimbus oder Gewitterwolken

METAR: HECA 221130Z 31007KT CAVOK 31/14 Q1013 NOSIG

Zeit: 14:06 (12:06 UTC)

Prognose

Neuester Wetterbericht von vor 1 Stunde und 6 Minuten, um 11:00 UTC
Gültige Prognose vom 22 um 12 UTC bis 23 um 18 UTC
Wind 10 kt aus Nord
Sichtweite 10 km oder mehr
keine Wolken unter 1500 m und keine Kumulonimbus oder Gewitterwolken
Zeitweise
vom 23 um 03 UTC bis 23 um 06 UTC
Wind 3 kt aus unterschiedlichen Richtungen
Sichtweite: 4000 m
feuchter Dunst

TAF: HECA 221100Z 2212/2318 36010KT CAVOK TEMPO 2303/2306 VRB03KT 4000 BR NSC

Wetterbeobachtungen und Prognosen von mehr als 4000 Flughäfen (METAR und TAF Bericht).

Die verfügbaren Stationen werden durch gelbe und rote Markierungen auf der Karte dargestellt.

Führen Sie die Maus auf sie, um den Namen der Station zu sehen.

Darauf klicken, um die Beobachtung von Wetterbeobachtungen und Prognosen zu sehen.

Um die Karte zu ändern : klicken Sie auf den grünen Tasten mit einem schwarzen Kreuz Zum Vergrößern, auf den grünen Button mit einem Gedankenstrich zu verkleinern, oder auf die grünen Pfeile für benachbarte Karten.


METAR-TAF: